createdAt,value
2019-02-21T00:00:58.952Z,50.23
2019-02-21T00:05:06.994Z,47.97
2019-02-21T00:09:14.799Z,50.63
2019-02-21T00:13:23.013Z,57.70
2019-02-21T00:17:30.736Z,64.70
2019-02-21T00:21:38.925Z,64.73
2019-02-21T00:25:46.665Z,58.33
2019-02-21T00:29:54.246Z,59.77
2019-02-21T00:34:02.163Z,55.40
2019-02-21T00:38:10.093Z,67.70
2019-02-21T00:42:17.805Z,63.50
2019-02-21T00:46:26.101Z,59.17
2019-02-21T00:50:35.147Z,61.07
2019-02-21T00:54:42.868Z,62.07
2019-02-21T00:58:51.093Z,60.97
2019-02-21T01:02:58.923Z,53.27
2019-02-21T01:07:07.304Z,54.73
2019-02-21T01:11:15.362Z,54.30
2019-02-21T01:15:23.551Z,45.60
2019-02-21T01:19:31.543Z,48.07
2019-02-21T01:23:39.670Z,56.33
2019-02-21T01:27:47.590Z,45.97
2019-02-21T01:31:55.816Z,45.37
2019-02-21T01:36:03.622Z,45.87
2019-02-21T01:40:12.574Z,39.03
2019-02-21T01:44:20.865Z,43.03
2019-02-21T01:48:29.694Z,37.43
2019-02-21T01:52:37.823Z,41.30
2019-02-21T01:56:45.568Z,33.67
2019-02-21T02:00:54.255Z,38.67
2019-02-21T02:05:01.990Z,49.37
2019-02-21T02:09:12.472Z,41.37
2019-02-21T02:13:24.697Z,36.40
2019-02-21T02:17:30.628Z,40.67
2019-02-21T02:21:38.747Z,45.73
2019-02-21T02:25:46.960Z,49.80
2019-02-21T02:29:54.976Z,41.33
2019-02-21T02:34:02.679Z,36.53
2019-02-21T02:38:10.857Z,39.97
2019-02-21T02:42:19.539Z,46.37
2019-02-21T02:46:27.353Z,42.10
2019-02-21T02:50:35.068Z,36.40
2019-02-21T02:54:44.014Z,43.70
2019-02-21T02:58:52.404Z,41.73
2019-02-21T03:03:00.127Z,36.27
2019-02-21T03:07:08.392Z,38.83
2019-02-21T03:11:16.531Z,42.97
2019-02-21T03:15:24.262Z,42.13
2019-02-21T03:19:31.976Z,34.23
2019-02-21T03:23:40.210Z,37.87
2019-02-21T03:27:47.641Z,36.67
2019-02-21T03:31:56.282Z,37.13
2019-02-21T03:36:04.271Z,40.03
2019-02-21T03:40:12.356Z,36.60
2019-02-21T03:44:20.354Z,34.73
2019-02-21T03:48:28.168Z,38.33
2019-02-21T03:52:35.996Z,40.00
2019-02-21T03:56:44.237Z,34.10
2019-02-21T04:00:52.159Z,31.80
2019-02-21T04:05:00.368Z,31.47
2019-02-21T04:09:10.316Z,41.83
2019-02-21T04:13:17.918Z,42.00
2019-02-21T04:17:26.141Z,40.00
2019-02-21T04:21:34.453Z,39.87
2019-02-21T04:25:42.077Z,50.53
2019-02-21T04:29:49.963Z,46.50
2019-02-21T04:33:58.093Z,40.37
2019-02-21T04:38:05.934Z,45.80
2019-02-21T04:42:14.158Z,40.57
2019-02-21T04:46:22.007Z,32.13
2019-02-21T04:50:29.809Z,28.30
2019-02-21T04:54:37.970Z,26.50
2019-02-21T04:58:45.770Z,28.47
2019-02-21T05:02:53.923Z,30.23
2019-02-21T05:07:01.885Z,31.33
2019-02-21T05:11:09.801Z,37.27
2019-02-21T05:15:17.732Z,34.93
2019-02-21T05:19:25.447Z,41.90
2019-02-21T05:23:33.550Z,38.80
2019-02-21T05:27:47.693Z,62.60
2019-02-21T05:32:40.947Z,62.87
2019-02-21T05:37:01.718Z,55.10
2019-02-21T05:41:23.457Z,52.03
2019-02-21T05:45:53.301Z,43.87
2019-02-21T05:50:34.698Z,43.53
2019-02-21T05:55:04.131Z,45.40
2019-02-21T05:59:44.423Z,41.77
2019-02-21T06:04:19.584Z,40.97
2019-02-21T06:08:44.113Z,41.60
2019-02-21T06:13:03.817Z,43.70
2019-02-21T06:17:30.219Z,40.90
2019-02-21T06:22:10.492Z,38.17
2019-02-21T06:26:23.661Z,38.63
2019-02-21T06:30:47.147Z,44.53
2019-02-21T06:34:54.968Z,39.13
2019-02-21T06:39:02.713Z,33.50
2019-02-21T06:43:11.152Z,40.33
2019-02-21T06:47:18.973Z,36.83
2019-02-21T06:51:26.887Z,35.00
2019-02-21T06:55:34.695Z,38.67
2019-02-21T06:59:45.521Z,35.77
2019-02-21T07:03:53.886Z,32.70
2019-02-21T07:08:02.011Z,35.13
2019-02-21T07:12:10.673Z,34.17
2019-02-21T07:16:18.855Z,47.13
2019-02-21T07:20:28.922Z,32.43
2019-02-21T07:24:38.702Z,32.30
2019-02-21T07:28:47.127Z,35.60
2019-02-21T07:32:58.120Z,23.47
2019-02-21T07:37:18.683Z,22.80
2019-02-21T07:41:22.002Z,31.70
2019-02-21T07:45:29.702Z,32.20
2019-02-21T07:49:37.824Z,35.53
2019-02-21T07:53:46.113Z,29.27
2019-02-21T07:57:53.842Z,26.13
2019-02-21T08:02:01.877Z,20.23
2019-02-21T08:06:09.983Z,23.60
2019-02-21T08:10:18.092Z,24.50
2019-02-21T08:14:26.008Z,29.07
2019-02-21T08:18:34.132Z,31.20
2019-02-21T08:22:41.747Z,34.00
2019-02-21T08:26:49.653Z,37.50
2019-02-21T08:30:58.259Z,47.80
2019-02-21T08:35:06.957Z,27.03
2019-02-21T08:39:15.059Z,25.30
2019-02-21T08:43:22.968Z,29.03
2019-02-21T08:47:31.180Z,20.60
2019-02-21T08:51:38.976Z,24.17
2019-02-21T08:55:46.604Z,22.83
2019-02-21T08:59:54.837Z,26.77
2019-02-21T09:04:10.506Z,23.50
2019-02-21T09:08:12.330Z,20.07
2019-02-21T09:12:20.524Z,32.30
2019-02-21T09:16:28.592Z,31.90
2019-02-21T09:20:36.208Z,51.10
2019-02-21T09:24:44.448Z,40.43
2019-02-21T09:28:52.686Z,61.63
2019-02-21T09:33:00.471Z,38.43
2019-02-21T09:37:08.386Z,25.77
2019-02-21T09:41:16.192Z,37.30
2019-02-21T09:45:24.119Z,20.77
2019-02-21T09:49:31.930Z,18.33
2019-02-21T09:53:39.623Z,22.70
2019-02-21T09:57:47.454Z,19.43
2019-02-21T10:01:57.513Z,24.00
2019-02-21T10:06:04.952Z,17.90
2019-02-21T10:10:14.777Z,23.73
2019-02-21T10:14:22.602Z,19.63
2019-02-21T10:18:30.262Z,29.80
2019-02-21T10:22:38.597Z,26.80
2019-02-21T10:26:46.932Z,25.03
2019-02-21T10:30:54.722Z,19.43
2019-02-21T10:35:02.772Z,25.57
2019-02-21T10:39:11.384Z,22.30
2019-02-21T10:43:19.185Z,26.00
2019-02-21T10:47:27.116Z,24.53
2019-02-21T10:51:35.187Z,22.27
2019-02-21T10:55:42.953Z,21.93
2019-02-21T10:59:51.334Z,25.67
2019-02-21T11:03:59.046Z,26.57
2019-02-21T11:08:06.755Z,22.13
2019-02-21T11:12:15.061Z,24.73
2019-02-21T11:16:22.891Z,25.27
2019-02-21T11:20:31.005Z,23.43
2019-02-21T11:24:39.243Z,18.97
2019-02-21T11:28:47.359Z,19.00
2019-02-21T11:32:55.464Z,20.37
2019-02-21T11:37:03.681Z,16.37
2019-02-21T11:41:11.390Z,23.20
2019-02-21T11:45:20.035Z,14.43
2019-02-21T11:49:27.826Z,16.47
2019-02-21T11:53:38.004Z,24.73
2019-02-21T11:57:45.787Z,15.83
2019-02-21T12:01:53.622Z,43.13
2019-02-21T12:06:01.813Z,32.10
2019-02-21T12:10:10.578Z,21.07
2019-02-21T12:14:18.355Z,17.13
2019-02-21T12:18:27.342Z,23.73
2019-02-21T12:22:35.365Z,17.40
2019-02-21T12:26:43.137Z,16.13
2019-02-21T12:30:51.376Z,19.87
2019-02-21T12:34:59.357Z,20.43
2019-02-21T12:39:07.881Z,30.47
2019-02-21T12:43:16.379Z,26.23
2019-02-21T12:47:24.336Z,25.33
2019-02-21T12:51:31.964Z,22.20
2019-02-21T12:55:39.860Z,25.77
2019-02-21T12:59:48.148Z,26.47
2019-02-21T13:03:57.008Z,25.43
2019-02-21T13:08:05.526Z,39.13
2019-02-21T13:12:13.337Z,25.73
2019-02-21T13:16:21.150Z,31.30
2019-02-21T13:20:29.053Z,22.50
2019-02-21T13:24:36.764Z,25.67
2019-02-21T13:28:44.776Z,19.07
2019-02-21T13:32:52.814Z,24.40
2019-02-21T13:37:00.421Z,27.13
2019-02-21T13:41:08.529Z,38.90
2019-02-21T13:45:17.798Z,21.63
2019-02-21T13:49:25.902Z,23.87
2019-02-21T13:53:33.706Z,20.20
2019-02-21T13:57:41.323Z,22.23
2019-02-21T14:01:50.131Z,27.37
2019-02-21T14:06:03.580Z,24.50
2019-02-21T14:10:08.742Z,31.43
2019-02-21T14:14:16.999Z,47.40
2019-02-21T14:18:24.819Z,33.03
2019-02-21T14:22:32.537Z,25.50
2019-02-21T14:26:41.665Z,31.80
2019-02-21T14:30:49.714Z,29.13
2019-02-21T14:34:57.428Z,38.20
2019-02-21T14:39:06.588Z,30.83
2019-02-21T14:43:17.059Z,34.77
2019-02-21T14:47:24.807Z,27.53
2019-02-21T14:51:33.057Z,28.63
2019-02-21T14:55:41.052Z,28.27
2019-02-21T14:59:48.615Z,32.60
2019-02-21T15:03:56.680Z,40.77
2019-02-21T15:08:04.432Z,31.93
2019-02-21T15:12:12.602Z,20.73
2019-02-21T15:16:20.537Z,20.23
2019-02-21T15:20:36.299Z,22.83
2019-02-21T15:24:37.850Z,36.87
2019-02-21T15:28:46.092Z,42.63
2019-02-21T15:32:53.805Z,42.10
2019-02-21T15:37:02.094Z,31.13
2019-02-21T15:41:10.116Z,33.03
2019-02-21T15:45:23.367Z,55.33
2019-02-21T15:49:29.375Z,58.17
2019-02-21T15:53:37.700Z,73.83
2019-02-21T15:57:46.552Z,44.30
2019-02-21T16:01:54.609Z,54.50
2019-02-21T16:06:02.332Z,98.17
2019-02-21T16:10:12.207Z,57.53
2019-02-21T16:14:20.492Z,208.70
2019-02-21T16:18:28.167Z,171.60
2019-02-21T16:22:37.231Z,133.23
2019-02-21T16:26:45.557Z,78.37
2019-02-21T16:30:53.361Z,64.00
2019-02-21T16:35:01.482Z,50.20
2019-02-21T16:39:10.529Z,40.77
2019-02-21T16:43:18.635Z,47.73
2019-02-21T16:47:26.647Z,66.13
2019-02-21T16:51:34.789Z,58.93
2019-02-21T16:55:42.581Z,42.60
2019-02-21T16:59:51.224Z,34.17
2019-02-21T17:03:59.022Z,46.60
2019-02-21T17:08:06.802Z,44.13
2019-02-21T17:12:14.995Z,49.43
2019-02-21T17:16:22.609Z,39.57
2019-02-21T17:20:30.334Z,33.67
2019-02-21T17:24:38.408Z,25.10
2019-02-21T17:28:46.280Z,43.47
2019-02-21T17:32:54.315Z,50.63
2019-02-21T17:37:02.596Z,47.43
2019-02-21T17:41:10.346Z,31.17
2019-02-21T17:45:19.437Z,27.70
2019-02-21T17:49:30.135Z,31.80
2019-02-21T17:53:39.004Z,31.80
2019-02-21T17:57:53.008Z,37.37
2019-02-21T18:02:01.614Z,45.37
2019-02-21T18:06:09.359Z,36.30
2019-02-21T18:10:18.039Z,31.57
2019-02-21T18:14:26.312Z,53.63
2019-02-21T18:18:34.100Z,45.93
2019-02-21T18:22:41.937Z,66.40
2019-02-21T18:26:51.045Z,55.00
2019-02-21T18:30:58.947Z,77.43
2019-02-21T18:35:07.414Z,118.20
2019-02-21T18:39:15.882Z,113.07
2019-02-21T18:43:24.017Z,66.83
2019-02-21T18:47:32.155Z,56.20
2019-02-21T18:51:39.858Z,50.93
2019-02-21T18:55:47.767Z,37.90
2019-02-21T18:59:56.519Z,152.53
2019-02-21T19:04:04.605Z,58.33
2019-02-21T19:08:14.025Z,49.43
2019-02-21T19:12:21.892Z,56.40
2019-02-21T19:16:29.875Z,48.80
2019-02-21T19:20:38.372Z,43.67
2019-02-21T19:24:46.307Z,43.07
2019-02-21T19:28:54.967Z,40.50
2019-02-21T19:33:03.134Z,43.63
2019-02-21T19:37:11.316Z,42.67
2019-02-21T19:41:20.068Z,56.13
2019-02-21T19:45:29.267Z,54.67
2019-02-21T19:49:37.533Z,47.13
2019-02-21T19:53:45.733Z,45.63
2019-02-21T19:57:53.509Z,44.10
2019-02-21T20:02:01.846Z,48.13
2019-02-21T20:06:09.656Z,43.97
2019-02-21T20:10:18.680Z,42.13
2019-02-21T20:14:26.893Z,39.33
2019-02-21T20:18:34.732Z,51.03
2019-02-21T20:22:42.927Z,56.57
2019-02-21T20:26:51.154Z,38.37
2019-02-21T20:30:58.825Z,31.07
2019-02-21T20:35:07.399Z,38.47
2019-02-21T20:39:15.397Z,39.27
2019-02-21T20:43:23.309Z,43.83
2019-02-21T20:47:31.181Z,34.13
2019-02-21T20:51:39.150Z,38.93
2019-02-21T20:55:47.267Z,36.33
2019-02-21T20:59:55.672Z,44.80
2019-02-21T21:04:04.086Z,44.17
2019-02-21T21:08:11.750Z,35.50
2019-02-21T21:12:19.914Z,36.00
2019-02-21T21:16:27.993Z,50.50
2019-02-21T21:20:35.758Z,44.03
2019-02-21T21:24:44.066Z,66.77
2019-02-21T21:28:51.867Z,46.47
2019-02-21T21:32:59.688Z,43.57
2019-02-21T21:37:07.693Z,47.13
2019-02-21T21:41:15.643Z,42.77
2019-02-21T21:45:23.548Z,47.10
2019-02-21T21:49:31.458Z,42.50
2019-02-21T21:53:39.157Z,42.30
2019-02-21T21:57:48.702Z,49.23
2019-02-21T22:01:57.103Z,48.97
2019-02-21T22:06:05.253Z,51.03
2019-02-21T22:10:14.150Z,53.63
2019-02-21T22:14:22.954Z,56.93
2019-02-21T22:18:30.645Z,60.73
2019-02-21T22:22:38.780Z,57.27
2019-02-21T22:26:46.993Z,57.03
2019-02-21T22:30:54.785Z,57.37
2019-02-21T22:35:02.832Z,53.70
2019-02-21T22:39:16.436Z,60.50
2019-02-21T22:43:20.606Z,47.57
2019-02-21T22:47:28.912Z,56.90
2019-02-21T22:51:37.008Z,56.87
2019-02-21T22:55:44.912Z,50.20
2019-02-21T22:59:53.240Z,49.87
2019-02-21T23:04:54.889Z,52.40
2019-02-21T23:09:02.865Z,46.03
2019-02-21T23:13:12.712Z,47.97
2019-02-21T23:17:20.634Z,44.57
2019-02-21T23:21:28.919Z,41.63
2019-02-21T23:25:37.033Z,47.77
2019-02-21T23:29:44.853Z,43.10
2019-02-21T23:33:56.828Z,44.70
2019-02-21T23:38:04.749Z,43.27
2019-02-21T23:42:12.559Z,43.90
2019-02-21T23:46:20.781Z,48.10
2019-02-21T23:50:28.588Z,41.07
2019-02-21T23:54:36.901Z,43.97
2019-02-21T23:58:45.229Z,40.33
